createdAt,value
2023-03-25T00:01:32.722Z,96727.75
2023-03-25T00:03:34.011Z,96725.97
2023-03-25T00:05:35.299Z,96729.28
2023-03-25T00:07:36.877Z,96720.72
2023-03-25T00:09:38.286Z,96714.69
2023-03-25T00:11:39.659Z,96724.88
2023-03-25T00:13:42.249Z,96718.09
2023-03-25T00:15:46.306Z,96725.69
2023-03-25T00:17:47.647Z,96727.41
2023-03-25T00:19:50.634Z,96728.31
2023-03-25T00:21:52.153Z,96727.63
2023-03-25T00:23:53.454Z,96727.75
2023-03-25T00:26:00.206Z,96718.44
2023-03-25T00:28:02.201Z,96720.94
2023-03-25T00:30:03.529Z,96722.66
2023-03-25T00:32:04.907Z,96714.22
2023-03-25T00:34:06.225Z,96712.63
2023-03-25T00:36:07.772Z,96709.25
2023-03-25T00:38:09.779Z,96709.31
2023-03-25T00:40:11.676Z,96707.66
2023-03-25T00:42:13.972Z,96700.13
2023-03-25T00:44:17.190Z,96701.84
2023-03-25T00:46:18.564Z,96692.47
2023-03-25T00:48:19.919Z,96699.34
2023-03-25T00:50:24.658Z,96696.03
2023-03-25T00:52:26.003Z,96691.81
2023-03-25T00:54:27.308Z,96679.09
2023-03-25T00:56:28.634Z,96685.09
2023-03-25T00:58:30.041Z,96686.75
2023-03-25T01:00:31.346Z,96685.03
2023-03-25T01:02:33.908Z,96688.44
2023-03-25T01:04:35.338Z,96679.97
2023-03-25T01:06:36.793Z,96677.44
2023-03-25T01:08:38.166Z,96678.34
2023-03-25T01:10:39.459Z,96674.88
2023-03-25T01:12:40.755Z,96673.25
2023-03-25T01:14:42.374Z,96675.63
2023-03-25T01:16:43.704Z,96669.53
2023-03-25T01:18:45.053Z,96675.41
2023-03-25T01:20:46.353Z,96668.53
2023-03-25T01:22:47.697Z,96671.09
2023-03-25T01:24:49.015Z,96665.97
2023-03-25T01:26:50.520Z,96671.09
2023-03-25T01:28:51.975Z,96662.47
2023-03-25T01:30:53.279Z,96655.63
2023-03-25T01:32:54.607Z,96659.00
2023-03-25T01:34:56.466Z,96654.72
2023-03-25T01:36:58.286Z,96661.38
2023-03-25T01:38:59.592Z,96656.31
2023-03-25T01:41:00.925Z,96658.84
2023-03-25T01:43:02.315Z,96663.13
2023-03-25T01:45:03.666Z,96646.09
2023-03-25T01:47:05.132Z,96656.19
2023-03-25T01:49:06.489Z,96651.81
2023-03-25T01:51:07.782Z,96645.13
2023-03-25T01:53:09.092Z,96645.25
2023-03-25T01:55:10.465Z,96644.50
2023-03-25T01:57:11.855Z,96643.75
2023-03-25T01:59:13.178Z,96649.63
2023-03-25T02:01:14.588Z,96647.88
2023-03-25T02:03:16.204Z,96647.88
2023-03-25T02:05:17.934Z,96645.41
2023-03-25T02:07:19.871Z,96647.13
2023-03-25T02:09:21.433Z,96636.19
2023-03-25T02:11:25.963Z,96640.44
2023-03-25T02:13:27.319Z,96635.34
2023-03-25T02:15:28.721Z,96629.44
2023-03-25T02:17:30.116Z,96624.28
2023-03-25T02:19:33.040Z,96619.06
2023-03-25T02:21:34.563Z,96618.13
2023-03-25T02:23:41.874Z,96617.34
2023-03-25T02:25:46.051Z,96612.28
2023-03-25T02:27:47.563Z,96614.91
2023-03-25T02:29:50.233Z,96603.03
2023-03-25T02:31:51.796Z,96609.03
2023-03-25T02:33:53.134Z,96606.41
2023-03-25T02:35:54.471Z,96608.13
2023-03-25T02:37:58.398Z,96597.91
2023-03-25T02:39:59.864Z,96593.66
2023-03-25T02:42:02.201Z,96601.38
2023-03-25T02:44:03.542Z,96601.53
2023-03-25T02:46:04.973Z,96604.13
2023-03-25T02:48:06.379Z,96596.47
2023-03-25T02:50:07.830Z,96603.25
2023-03-25T02:52:09.193Z,96602.41
2023-03-25T02:54:11.200Z,96600.72
2023-03-25T02:56:12.531Z,96600.69
2023-03-25T02:58:13.839Z,96600.69
2023-03-25T03:00:18.304Z,96603.03
2023-03-25T03:02:19.658Z,96602.97
2023-03-25T03:04:21.166Z,96597.78
2023-03-25T03:06:22.469Z,96596.00
2023-03-25T03:08:24.223Z,96589.06
2023-03-25T03:10:25.567Z,96592.47
2023-03-25T03:12:26.872Z,96577.09
2023-03-25T03:14:28.213Z,96579.56
2023-03-25T03:16:30.998Z,96581.16
2023-03-25T03:18:34.513Z,96574.22
2023-03-25T03:20:35.935Z,96573.34
2023-03-25T03:22:37.262Z,96578.41
2023-03-25T03:24:38.546Z,96581.84
2023-03-25T03:26:40.002Z,96580.25
2023-03-25T03:28:41.300Z,96599.03
2023-03-25T03:30:42.646Z,96588.88
2023-03-25T03:32:45.640Z,96589.72
2023-03-25T03:34:47.114Z,96585.63
2023-03-25T03:36:48.593Z,96583.16
2023-03-25T03:38:49.900Z,96594.34
2023-03-25T03:40:51.217Z,96596.13
2023-03-25T03:42:52.579Z,96590.22
2023-03-25T03:44:53.881Z,96590.25
2023-03-25T03:46:55.229Z,96596.25
2023-03-25T03:48:56.572Z,96594.53
2023-03-25T03:50:57.954Z,96583.56
2023-03-25T03:52:59.943Z,96597.09
2023-03-25T03:55:02.492Z,96599.63
2023-03-25T03:57:03.934Z,96609.94
2023-03-25T03:59:05.307Z,96606.56
2023-03-25T04:01:09.788Z,96603.16
2023-03-25T04:03:14.498Z,96610.81
2023-03-25T04:05:16.373Z,96608.28
2023-03-25T04:07:17.700Z,96608.38
2023-03-25T04:09:19.533Z,96614.34
2023-03-25T04:11:20.874Z,96616.09
2023-03-25T04:13:22.185Z,96617.00
2023-03-25T04:15:23.488Z,96611.00
2023-03-25T04:17:25.533Z,96615.03
2023-03-25T04:19:26.874Z,96614.91
2023-03-25T04:21:30.018Z,96613.09
2023-03-25T04:23:31.856Z,96617.59
2023-03-25T04:25:33.854Z,96615.34
2023-03-25T04:27:37.679Z,96603.25
2023-03-25T04:29:40.633Z,96607.44
2023-03-25T04:31:49.924Z,96599.59
2023-03-25T04:33:51.838Z,96606.34
2023-03-25T04:35:53.513Z,96602.00
2023-03-25T04:37:57.425Z,96598.34
2023-03-25T04:40:01.204Z,96604.13
2023-03-25T04:42:03.766Z,96603.28
2023-03-25T04:44:07.970Z,96598.13
2023-03-25T04:46:09.763Z,96598.88
2023-03-25T04:48:14.780Z,96595.44
2023-03-25T04:50:16.598Z,96596.94
2023-03-25T04:52:17.894Z,96600.13
2023-03-25T04:54:19.229Z,96606.06
2023-03-25T04:56:20.571Z,96600.94
2023-03-25T04:58:22.143Z,96458.53
2023-03-25T05:00:24.154Z,96605.34
2023-03-25T05:02:25.725Z,96612.34
2023-03-25T05:04:27.111Z,96615.88
2023-03-25T05:06:29.233Z,96614.97
2023-03-25T05:08:31.154Z,96615.88
2023-03-25T05:10:32.476Z,96616.00
2023-03-25T05:12:33.768Z,96627.19
2023-03-25T05:14:35.377Z,96627.31
2023-03-25T05:16:36.688Z,96624.81
2023-03-25T05:18:38.011Z,96618.09
2023-03-25T05:20:39.990Z,96621.53
2023-03-25T05:22:42.101Z,96625.00
2023-03-25T05:24:45.139Z,96623.31
2023-03-25T05:26:46.460Z,96615.66
2023-03-25T05:28:51.412Z,96618.28
2023-03-25T05:30:52.779Z,96614.00
2023-03-25T05:32:56.632Z,96612.28
2023-03-25T05:34:58.359Z,96615.88
2023-03-25T05:36:59.656Z,96622.75
2023-03-25T05:39:00.970Z,96621.94
2023-03-25T05:41:02.289Z,96623.69
2023-03-25T05:43:03.978Z,96634.81
2023-03-25T05:45:05.400Z,96629.66
2023-03-25T05:47:07.397Z,96628.78
2023-03-25T05:49:08.737Z,96631.34
2023-03-25T05:51:10.027Z,96630.50
2023-03-25T05:53:12.398Z,96629.59
2023-03-25T05:55:14.280Z,96630.38
2023-03-25T05:57:15.751Z,96640.50
2023-03-25T05:59:17.054Z,96635.22
2023-03-25T06:01:31.775Z,96632.56
2023-03-25T06:03:34.356Z,96633.28
2023-03-25T06:05:36.286Z,96644.16
2023-03-25T06:07:37.847Z,96639.84
2023-03-25T06:09:45.821Z,96643.13
2023-03-25T06:11:53.374Z,96633.69
2023-03-25T06:13:54.690Z,96635.38
2023-03-25T06:15:57.335Z,96637.06
2023-03-25T06:17:58.759Z,96629.41
2023-03-25T06:20:00.661Z,96634.59
2023-03-25T06:22:02.244Z,96628.66
2023-03-25T06:24:03.556Z,96636.44
2023-03-25T06:26:04.858Z,96627.94
2023-03-25T06:28:06.177Z,96631.38
2023-03-25T06:30:07.988Z,96623.81
2023-03-25T06:32:09.331Z,96629.75
2023-03-25T06:34:10.719Z,96639.88
2023-03-25T06:36:12.157Z,96622.09
2023-03-25T06:38:13.960Z,96626.50
2023-03-25T06:40:15.341Z,96630.63
2023-03-25T06:42:16.675Z,96625.41
2023-03-25T06:44:24.696Z,96629.66
2023-03-25T06:46:26.458Z,96625.41
2023-03-25T06:48:27.762Z,96631.38
2023-03-25T06:50:29.051Z,96628.03
2023-03-25T06:52:30.386Z,96624.56
2023-03-25T06:54:31.694Z,96635.59
2023-03-25T06:56:33.066Z,96639.00
2023-03-25T06:58:37.448Z,96638.09
2023-03-25T07:00:38.875Z,96639.88
2023-03-25T07:02:40.325Z,96646.66
2023-03-25T07:04:41.720Z,96634.72
2023-03-25T07:06:43.046Z,96636.66
2023-03-25T07:08:44.421Z,96637.69
2023-03-25T07:10:45.719Z,96632.78
2023-03-25T07:12:47.241Z,96632.16
2023-03-25T07:14:48.572Z,96635.66
2023-03-25T07:16:50.615Z,96619.63
2023-03-25T07:18:52.125Z,96618.88
2023-03-25T07:20:53.568Z,96630.06
2023-03-25T07:22:55.271Z,96629.00
2023-03-25T07:24:58.410Z,96628.69
2023-03-25T07:26:59.820Z,96633.53
2023-03-25T07:29:03.459Z,96643.03
2023-03-25T07:31:04.811Z,96629.00
2023-03-25T07:33:06.224Z,96630.03
2023-03-25T07:35:09.378Z,96625.00
2023-03-25T07:37:10.872Z,96635.22
2023-03-25T07:39:15.079Z,96637.69
2023-03-25T07:41:16.411Z,96646.03
2023-03-25T07:43:17.700Z,96640.00
2023-03-25T07:45:19.008Z,96642.44
2023-03-25T07:47:20.435Z,96646.66
2023-03-25T07:49:21.803Z,96649.13
2023-03-25T07:51:23.105Z,96655.16
2023-03-25T07:53:24.439Z,96657.72
2023-03-25T07:55:25.917Z,96654.25
2023-03-25T07:57:27.323Z,96665.28
2023-03-25T07:59:29.393Z,96674.75
2023-03-25T08:01:31.054Z,96678.19
2023-03-25T08:03:33.500Z,96679.28
2023-03-25T08:05:35.761Z,96670.88
2023-03-25T08:07:37.118Z,96677.78
2023-03-25T08:09:38.460Z,96682.19
2023-03-25T08:11:39.744Z,96682.25
2023-03-25T08:13:41.056Z,96668.72
2023-03-25T08:15:42.742Z,96682.38
2023-03-25T08:17:44.148Z,96685.94
2023-03-25T08:19:48.787Z,96679.38
2023-03-25T08:21:50.132Z,96679.84
2023-03-25T08:23:51.565Z,96679.25
2023-03-25T08:25:53.767Z,96674.25
2023-03-25T08:27:55.259Z,96678.63
2023-03-25T08:29:57.740Z,96688.16
2023-03-25T08:32:02.050Z,96691.50
2023-03-25T08:34:03.589Z,96690.72
2023-03-25T08:36:05.180Z,96685.78
2023-03-25T08:38:06.822Z,96694.50
2023-03-25T08:40:11.133Z,96691.31
2023-03-25T08:42:12.484Z,96694.88
2023-03-25T08:44:13.990Z,96689.06
2023-03-25T08:46:15.377Z,96699.47
2023-03-25T08:48:16.780Z,96694.47
2023-03-25T08:50:18.128Z,96690.38
2023-03-25T08:52:19.624Z,96698.91
2023-03-25T08:54:21.539Z,96696.50
2023-03-25T08:56:25.982Z,96705.91
2023-03-25T08:58:27.292Z,96703.25
2023-03-25T09:00:28.610Z,96701.59
2023-03-25T09:02:29.969Z,96691.31
2023-03-25T09:04:31.501Z,96701.44
2023-03-25T09:06:47.862Z,96700.38
2023-03-25T09:08:56.042Z,96696.22
2023-03-25T09:10:57.471Z,96698.78
2023-03-25T09:12:58.846Z,96707.34
2023-03-25T09:15:00.145Z,96696.31
2023-03-25T09:17:01.443Z,96701.44
2023-03-25T09:19:05.695Z,96688.69
2023-03-25T09:21:07.017Z,96692.16
2023-03-25T09:23:09.775Z,96693.88
2023-03-25T09:25:11.204Z,96695.41
2023-03-25T09:27:12.489Z,96696.06
2023-03-25T09:29:14.032Z,96694.25
2023-03-25T09:31:15.481Z,96700.66
2023-03-25T09:33:16.803Z,96698.94
2023-03-25T09:35:18.208Z,96697.31
2023-03-25T09:37:19.512Z,96703.31
2023-03-25T09:39:21.012Z,96719.00
2023-03-25T09:41:22.376Z,96742.34
2023-03-25T09:43:23.696Z,96752.78
2023-03-25T09:45:25.118Z,96752.09
2023-03-25T09:47:26.555Z,96757.69
2023-03-25T09:49:31.330Z,96758.56
2023-03-25T09:51:32.983Z,96746.53
2023-03-25T09:53:34.303Z,96746.81
2023-03-25T09:55:35.714Z,96749.38
2023-03-25T09:57:37.983Z,96740.69
2023-03-25T09:59:39.285Z,96751.03
2023-03-25T10:01:41.525Z,96742.19
2023-03-25T10:03:42.897Z,96746.81
2023-03-25T10:05:44.227Z,96750.19
2023-03-25T10:07:46.125Z,96752.44
2023-03-25T10:09:47.465Z,96750.09
2023-03-25T10:11:48.807Z,96747.53
2023-03-25T10:13:50.247Z,96761.06
2023-03-25T10:15:51.837Z,96746.53
2023-03-25T10:17:56.560Z,96756.38
2023-03-25T10:19:58.124Z,96757.88
2023-03-25T10:21:59.477Z,96762.38
2023-03-25T10:24:00.941Z,96761.66
2023-03-25T10:26:02.232Z,96758.44
2023-03-25T10:28:03.658Z,96758.50
2023-03-25T10:30:05.022Z,96753.47
2023-03-25T10:32:07.034Z,96766.38
2023-03-25T10:34:08.372Z,96764.00
2023-03-25T10:36:09.767Z,96765.88
2023-03-25T10:38:14.495Z,96763.56
2023-03-25T10:40:16.698Z,96763.75
2023-03-25T10:42:18.272Z,96758.78
2023-03-25T10:44:19.697Z,96764.03
2023-03-25T10:46:21.223Z,96752.31
2023-03-25T10:48:22.644Z,96749.06
2023-03-25T10:50:23.984Z,96744.00
2023-03-25T10:52:31.237Z,96745.84
2023-03-25T10:54:32.836Z,96734.84
2023-03-25T10:56:34.159Z,96731.47
2023-03-25T10:58:35.492Z,96733.09
2023-03-25T11:00:36.785Z,96723.03
2023-03-25T11:02:38.171Z,96716.38
2023-03-25T11:04:42.180Z,96713.91
2023-03-25T11:06:43.473Z,96715.56
2023-03-25T11:08:44.903Z,96718.81
2023-03-25T11:10:46.198Z,96709.50
2023-03-25T11:12:48.295Z,96709.69
2023-03-25T11:14:49.694Z,96705.56
2023-03-25T11:16:53.710Z,96704.78
2023-03-25T11:18:55.195Z,96700.56
2023-03-25T11:20:56.504Z,96687.81
2023-03-25T11:22:57.852Z,96692.06
2023-03-25T11:24:59.148Z,96688.66
2023-03-25T11:27:00.807Z,96686.09
2023-03-25T11:29:02.439Z,96674.91
2023-03-25T11:31:03.797Z,96677.16
2023-03-25T11:33:05.355Z,96680.72
2023-03-25T11:35:07.192Z,96670.94
2023-03-25T11:37:09.654Z,96670.78
2023-03-25T11:39:11.385Z,96664.25
2023-03-25T11:41:12.800Z,96662.38
2023-03-25T11:43:14.144Z,96648.78
2023-03-25T11:45:15.456Z,96657.41
2023-03-25T11:47:16.747Z,96650.88
2023-03-25T11:49:18.062Z,96640.94
2023-03-25T11:51:19.391Z,96646.00
2023-03-25T11:53:20.740Z,96639.72
2023-03-25T11:55:22.076Z,96640.84
2023-03-25T11:57:23.375Z,96646.78
2023-03-25T11:59:25.196Z,96637.78
2023-03-25T12:01:27.896Z,96637.44
2023-03-25T12:03:29.373Z,96639.09
2023-03-25T12:05:33.998Z,96638.97
2023-03-25T12:07:35.367Z,96641.94
2023-03-25T12:09:36.695Z,96630.22
2023-03-25T12:11:40.806Z,96631.09
2023-03-25T12:13:43.330Z,96625.09
2023-03-25T12:15:44.656Z,96623.25
2023-03-25T12:17:46.236Z,96613.44
2023-03-25T12:19:47.612Z,96612.16
2023-03-25T12:21:51.983Z,96610.47
2023-03-25T12:23:53.280Z,96608.34
2023-03-25T12:25:54.730Z,96610.13
2023-03-25T12:27:56.215Z,96602.06
2023-03-25T12:29:57.560Z,96610.06
2023-03-25T12:31:58.868Z,96599.47
2023-03-25T12:34:00.368Z,96609.84
2023-03-25T12:36:02.279Z,96631.66
2023-03-25T12:38:03.566Z,96673.75
2023-03-25T12:40:09.806Z,96682.56
2023-03-25T12:42:11.292Z,96696.50
2023-03-25T12:44:12.633Z,96685.63
2023-03-25T12:46:14.415Z,96682.44
2023-03-25T12:48:15.899Z,96681.69
2023-03-25T12:50:17.250Z,96672.25
2023-03-25T12:52:18.537Z,96639.88
2023-03-25T12:54:19.836Z,96637.06
2023-03-25T12:56:21.319Z,96624.63
2023-03-25T12:58:23.252Z,96619.97
2023-03-25T13:00:25.589Z,96611.09
2023-03-25T13:02:27.163Z,96612.38
2023-03-25T13:04:28.502Z,96609.31
2023-03-25T13:06:34.772Z,96603.97
2023-03-25T13:08:36.137Z,96599.44
2023-03-25T13:10:37.492Z,96601.78
2023-03-25T13:12:40.358Z,96591.47
2023-03-25T13:14:42.993Z,96595.75
2023-03-25T13:16:47.601Z,96592.97
2023-03-25T13:18:49.062Z,96582.69
2023-03-25T13:20:51.531Z,96574.91
2023-03-25T13:22:53.075Z,96580.88
2023-03-25T13:24:55.176Z,96575.88
2023-03-25T13:26:56.470Z,96578.91
2023-03-25T13:29:01.270Z,96582.31
2023-03-25T13:31:02.577Z,96578.34
2023-03-25T13:33:03.907Z,96572.72
2023-03-25T13:35:05.287Z,96577.97
2023-03-25T13:37:06.682Z,96568.25
2023-03-25T13:39:09.263Z,96579.31
2023-03-25T13:41:10.636Z,96574.44
2023-03-25T13:43:13.450Z,96572.50
2023-03-25T13:45:21.094Z,96569.31
2023-03-25T13:47:22.868Z,96571.41
2023-03-25T13:49:24.170Z,96570.94
2023-03-25T13:51:25.506Z,96566.94
2023-03-25T13:53:27.128Z,96573.44
2023-03-25T13:55:30.004Z,96567.88
2023-03-25T13:57:31.455Z,96575.03
2023-03-25T13:59:32.858Z,96593.13
2023-03-25T14:01:37.206Z,96592.38
2023-03-25T14:03:38.527Z,96597.03
2023-03-25T14:05:39.831Z,96587.00
2023-03-25T14:07:41.168Z,96584.63
2023-03-25T14:09:42.462Z,96584.03
2023-03-25T14:11:43.968Z,96577.59
2023-03-25T14:13:45.561Z,96569.78
2023-03-25T14:15:47.327Z,96571.59
2023-03-25T14:17:50.896Z,96565.66
2023-03-25T14:19:55.599Z,96570.16
2023-03-25T14:21:56.957Z,96568.66
2023-03-25T14:23:58.279Z,96571.25
2023-03-25T14:25:59.610Z,96579.75
2023-03-25T14:28:02.281Z,96584.94
2023-03-25T14:30:04.713Z,96569.69
2023-03-25T14:32:06.064Z,96566.28
2023-03-25T14:34:07.764Z,96565.63
2023-03-25T14:36:09.064Z,96571.63
2023-03-25T14:38:11.471Z,96572.66
2023-03-25T14:40:14.261Z,96576.25
2023-03-25T14:42:15.868Z,96565.34
2023-03-25T14:44:18.136Z,96562.88
2023-03-25T14:46:20.389Z,96558.66
2023-03-25T14:48:25.588Z,96572.34
2023-03-25T14:50:30.317Z,96575.69
2023-03-25T14:52:32.233Z,96564.69
2023-03-25T14:54:33.658Z,96560.31
2023-03-25T14:56:35.674Z,96561.16
2023-03-25T14:58:36.984Z,96552.78
2023-03-25T15:00:41.508Z,96565.84
2023-03-25T15:02:42.918Z,96556.63
2023-03-25T15:04:44.280Z,96563.50
2023-03-25T15:06:45.623Z,96565.94
2023-03-25T15:08:46.949Z,96560.69
2023-03-25T15:10:52.650Z,96550.38
2023-03-25T15:12:54.117Z,96552.84
2023-03-25T15:14:55.925Z,96538.38
2023-03-25T15:16:57.285Z,96544.25
2023-03-25T15:18:58.599Z,96539.75
2023-03-25T15:20:59.894Z,96542.91
2023-03-25T15:23:01.201Z,96536.59
2023-03-25T15:25:02.584Z,96528.63
2023-03-25T15:27:03.913Z,96540.00
2023-03-25T15:29:05.507Z,96537.84
2023-03-25T15:31:06.887Z,96536.41
2023-03-25T15:33:08.235Z,96396.91
2023-03-25T15:35:10.280Z,96533.72
2023-03-25T15:37:15.833Z,96544.00
2023-03-25T15:39:17.143Z,96565.28
2023-03-25T15:41:22.245Z,96589.78
2023-03-25T15:43:23.543Z,96593.38
2023-03-25T15:45:24.891Z,96600.22
2023-03-25T15:47:29.186Z,96604.03
2023-03-25T15:49:30.559Z,96612.22
2023-03-25T15:51:32.314Z,96604.44
2023-03-25T15:53:41.902Z,96601.84
2023-03-25T15:55:44.388Z,96606.28
2023-03-25T15:57:45.909Z,96601.91
2023-03-25T15:59:47.435Z,96603.56
2023-03-25T16:01:48.769Z,96604.94
2023-03-25T16:03:50.382Z,96600.56
2023-03-25T16:05:51.844Z,96610.34
2023-03-25T16:07:53.183Z,96615.16
2023-03-25T16:09:55.511Z,96609.53
2023-03-25T16:11:56.837Z,96612.91
2023-03-25T16:13:58.155Z,96592.78
2023-03-25T16:15:59.495Z,96605.00
2023-03-25T16:18:00.934Z,96610.13
2023-03-25T16:20:02.291Z,96601.31
2023-03-25T16:22:03.698Z,96593.47
2023-03-25T16:24:05.164Z,96596.78
2023-03-25T16:26:06.704Z,96476.09
2023-03-25T16:28:08.044Z,96595.19
2023-03-25T16:30:10.128Z,96593.63
2023-03-25T16:32:11.838Z,96605.84
2023-03-25T16:34:16.092Z,96600.88
2023-03-25T16:36:20.815Z,96593.31
2023-03-25T16:38:22.735Z,96588.28
2023-03-25T16:40:24.463Z,96597.09
2023-03-25T16:42:26.259Z,96597.31
2023-03-25T16:44:27.551Z,96611.53
2023-03-25T16:46:28.919Z,96607.63
2023-03-25T16:48:36.626Z,96614.47
2023-03-25T16:50:37.974Z,96609.50
2023-03-25T16:52:39.315Z,96618.41
2023-03-25T16:54:40.605Z,96614.00
2023-03-25T16:56:41.949Z,96620.13
2023-03-25T16:58:43.259Z,96619.97
2023-03-25T17:00:44.726Z,96627.78
2023-03-25T17:02:48.429Z,96627.81
2023-03-25T17:04:51.083Z,96635.84
2023-03-25T17:06:52.693Z,96621.47
2023-03-25T17:08:54.108Z,96630.22
2023-03-25T17:10:55.455Z,96635.41
2023-03-25T17:12:57.316Z,96642.09
2023-03-25T17:14:58.621Z,96646.25
2023-03-25T17:16:59.940Z,96640.59
2023-03-25T17:19:02.180Z,96646.41
2023-03-25T17:21:03.566Z,96648.97
2023-03-25T17:23:07.899Z,96647.06
2023-03-25T17:25:09.220Z,96666.09
2023-03-25T17:27:10.525Z,96657.13
2023-03-25T17:29:12.267Z,96662.03
2023-03-25T17:31:13.595Z,96659.22
2023-03-25T17:33:15.660Z,96674.38
2023-03-25T17:35:16.971Z,96664.91
2023-03-25T17:37:19.051Z,96670.81
2023-03-25T17:39:20.795Z,96667.00
2023-03-25T17:41:22.309Z,96665.34
2023-03-25T17:43:23.638Z,96662.78
2023-03-25T17:45:27.962Z,96666.03
2023-03-25T17:47:32.309Z,96671.78
2023-03-25T17:49:33.622Z,96667.59
2023-03-25T17:51:34.994Z,96667.50
2023-03-25T17:53:36.283Z,96664.91
2023-03-25T17:55:37.579Z,96659.81
2023-03-25T17:57:38.883Z,96668.13
2023-03-25T17:59:40.183Z,96673.09
2023-03-25T18:01:42.041Z,96675.84
2023-03-25T18:03:43.417Z,96672.44
2023-03-25T18:05:45.690Z,96677.16
2023-03-25T18:07:47.086Z,96680.97
2023-03-25T18:09:48.963Z,96686.75
2023-03-25T18:11:50.392Z,96678.50
2023-03-25T18:13:52.127Z,96674.31
2023-03-25T18:15:53.602Z,96677.69
2023-03-25T18:17:56.646Z,96679.44
2023-03-25T18:19:57.987Z,96676.25
2023-03-25T18:22:06.729Z,96676.50
2023-03-25T18:24:11.976Z,96675.66
2023-03-25T18:26:13.333Z,96670.63
2023-03-25T18:28:14.934Z,96676.78
2023-03-25T18:30:19.208Z,96691.34
2023-03-25T18:32:20.631Z,96682.13
2023-03-25T18:34:23.640Z,96694.56
2023-03-25T18:36:24.951Z,96692.41
2023-03-25T18:38:26.294Z,96685.09
2023-03-25T18:40:28.322Z,96693.91
2023-03-25T18:42:29.618Z,96694.69
2023-03-25T18:44:31.006Z,96696.59
2023-03-25T18:46:32.584Z,96691.75
2023-03-25T18:48:33.879Z,96688.00
2023-03-25T18:50:35.314Z,96689.59
2023-03-25T18:52:36.843Z,96680.94
2023-03-25T18:54:38.213Z,96692.97
2023-03-25T18:56:41.734Z,96705.00
2023-03-25T18:58:43.110Z,96712.94
2023-03-25T19:00:44.554Z,96706.25
2023-03-25T19:02:46.377Z,96701.91
2023-03-25T19:05:00.247Z,96707.13
2023-03-25T19:07:04.364Z,96701.88
2023-03-25T19:09:05.723Z,96700.94
2023-03-25T19:11:19.030Z,96693.03
2023-03-25T19:13:21.911Z,96692.16
2023-03-25T19:15:25.640Z,96704.84
2023-03-25T19:17:27.104Z,96701.84
2023-03-25T19:19:31.261Z,96704.84
2023-03-25T19:21:35.522Z,96694.66
2023-03-25T19:23:39.739Z,96698.91
2023-03-25T19:25:41.547Z,96698.06
2023-03-25T19:27:42.899Z,96691.41
2023-03-25T19:29:44.195Z,96688.00
2023-03-25T19:31:48.607Z,96689.72
2023-03-25T19:33:49.993Z,96685.66
2023-03-25T19:35:54.340Z,96687.13
2023-03-25T19:37:56.712Z,96681.31
2023-03-25T19:39:58.302Z,96694.09
2023-03-25T19:42:04.265Z,96685.78
2023-03-25T19:44:05.825Z,96699.78
2023-03-25T19:46:07.339Z,96688.00
2023-03-25T19:48:08.766Z,96681.16
2023-03-25T19:50:10.823Z,96689.97
2023-03-25T19:52:12.153Z,96690.72
2023-03-25T19:54:15.262Z,96679.75
2023-03-25T19:56:16.850Z,96684.41
2023-03-25T19:58:20.163Z,96675.06
2023-03-25T20:00:21.794Z,96676.88
2023-03-25T20:02:23.220Z,96673.56
2023-03-25T20:04:24.648Z,96672.06
2023-03-25T20:06:26.152Z,96671.31
2023-03-25T20:08:29.200Z,96664.72
2023-03-25T20:10:30.579Z,96670.72
2023-03-25T20:12:31.937Z,96671.63
2023-03-25T20:14:33.351Z,96669.88
2023-03-25T20:16:34.981Z,96661.38
2023-03-25T20:18:42.400Z,96666.50
2023-03-25T20:20:43.733Z,96667.31
2023-03-25T20:22:45.671Z,96662.88
2023-03-25T20:24:51.353Z,96664.00
2023-03-25T20:26:52.770Z,96659.94
2023-03-25T20:28:57.218Z,96665.22
2023-03-25T20:30:58.576Z,96676.41
2023-03-25T20:33:00.198Z,96677.31
2023-03-25T20:35:01.532Z,96681.63
2023-03-25T20:37:02.826Z,96690.34
2023-03-25T20:39:05.948Z,96687.59
2023-03-25T20:41:08.300Z,96684.81
2023-03-25T20:43:09.686Z,96675.72
2023-03-25T20:45:11.109Z,96680.19
2023-03-25T20:47:13.574Z,96674.50
2023-03-25T20:49:15.579Z,96672.63
2023-03-25T20:51:17.013Z,96686.94
2023-03-25T20:53:18.358Z,96673.09
2023-03-25T20:55:19.810Z,96670.81
2023-03-25T20:57:21.113Z,96679.31
2023-03-25T20:59:23.039Z,96675.88
2023-03-25T21:01:24.459Z,96674.44
2023-03-25T21:03:26.025Z,96682.09
2023-03-25T21:05:28.200Z,96671.66
2023-03-25T21:07:29.544Z,96668.88
2023-03-25T21:09:31.713Z,96657.59
2023-03-25T21:11:33.083Z,96648.81
2023-03-25T21:13:34.375Z,96642.56
2023-03-25T21:15:36.312Z,96660.47
2023-03-25T21:17:37.895Z,96653.09
2023-03-25T21:19:43.104Z,96653.25
2023-03-25T21:21:44.442Z,96642.09
2023-03-25T21:23:45.747Z,96648.00
2023-03-25T21:25:47.103Z,96655.97
2023-03-25T21:27:51.324Z,96651.72
2023-03-25T21:31:53.946Z,96646.31
2023-03-25T21:33:55.311Z,96637.22
2023-03-25T21:36:00.769Z,96639.25
2023-03-25T21:38:02.071Z,96644.38
2023-03-25T21:40:10.086Z,96636.63
2023-03-25T21:42:11.733Z,96640.28
2023-03-25T21:44:15.878Z,96637.13
2023-03-25T21:46:17.244Z,96640.84
2023-03-25T21:48:18.672Z,96644.22
2023-03-25T21:50:21.574Z,96640.44
2023-03-25T21:52:26.324Z,96636.22
2023-03-25T21:54:28.851Z,96633.00
2023-03-25T21:56:34.846Z,96633.97
2023-03-25T21:58:45.442Z,96630.72
2023-03-25T22:00:46.742Z,96641.13
2023-03-25T22:02:48.118Z,96641.50
2023-03-25T22:04:49.472Z,96637.22
2023-03-25T22:06:50.922Z,96639.03
2023-03-25T22:08:52.303Z,96643.47
2023-03-25T22:10:53.806Z,96640.84
2023-03-25T22:12:58.059Z,96639.31
2023-03-25T22:14:59.366Z,96642.03
2023-03-25T22:17:00.770Z,96641.28
2023-03-25T22:19:02.138Z,96624.25
2023-03-25T22:21:03.540Z,96631.94
2023-03-25T22:23:04.887Z,96630.50
2023-03-25T22:25:06.741Z,96633.75
2023-03-25T22:27:08.049Z,96640.72
2023-03-25T22:29:09.418Z,96634.81
2023-03-25T22:31:11.197Z,96641.78
2023-03-25T22:33:12.616Z,96629.59
2023-03-25T22:35:14.157Z,96628.13
2023-03-25T22:37:15.621Z,96633.69
2023-03-25T22:39:18.261Z,96630.59
2023-03-25T22:41:19.581Z,96630.91
2023-03-25T22:43:21.111Z,96629.81
2023-03-25T22:45:22.881Z,96625.78
2023-03-25T22:47:24.218Z,96627.00
2023-03-25T22:49:28.662Z,96631.53
2023-03-25T22:51:30.028Z,96628.66
2023-03-25T22:53:31.334Z,96635.00
2023-03-25T22:55:33.387Z,96628.88
2023-03-25T22:57:34.761Z,96628.72
2023-03-25T22:59:36.384Z,96626.16
2023-03-25T23:01:38.680Z,96627.59
2023-03-25T23:03:40.222Z,96623.00
2023-03-25T23:05:41.669Z,96631.81
2023-03-25T23:07:45.899Z,96628.41
2023-03-25T23:09:47.680Z,96617.78
2023-03-25T23:11:49.044Z,96613.03
2023-03-25T23:13:50.382Z,96625.19
2023-03-25T23:15:52.198Z,96624.25
2023-03-25T23:17:53.703Z,96620.94
2023-03-25T23:19:55.078Z,96622.97
2023-03-25T23:21:57.352Z,96634.34
2023-03-25T23:23:58.668Z,96632.03
2023-03-25T23:25:59.998Z,96627.91
2023-03-25T23:28:05.974Z,96632.19
2023-03-25T23:30:07.276Z,96630.44
2023-03-25T23:32:08.594Z,96633.16
2023-03-25T23:34:09.921Z,96631.44
2023-03-25T23:36:11.216Z,96627.31
2023-03-25T23:38:14.151Z,96626.22
2023-03-25T23:40:16.083Z,96629.28
2023-03-25T23:42:17.383Z,96617.19
2023-03-25T23:44:18.725Z,96622.53
2023-03-25T23:46:21.146Z,96621.25
2023-03-25T23:48:26.155Z,96616.06
2023-03-25T23:50:27.474Z,96625.00
2023-03-25T23:52:28.849Z,96628.31
2023-03-25T23:54:30.175Z,96624.31
2023-03-25T23:56:31.596Z,96617.06